Gilbertville, IA

7:27 AM CDT on April 24, 2018 (GMT -0500)
5293THOMA | | Change Station
Active Advisory: Flood Warning

Elev 885 ft 42.42 °N, 92.22 °W | Updated 11 seconds ago

Clear
Clear
46.0 °F
Feels Like 46 °F
N
0.0
Wind Variable Wind from SW
Gusts 0.0 mph

Today
High -- | Low -- °F
--% Chance of Precip.
Yesterday
High -- | Low -- °F
Precip. -- in
Pressure 30.13 in
Visibility 10.0 miles
Clouds Clear
Windchill 46 °F
Dew Point 33 °F
Humidity 61%
Rainfall 0.00 in
Snow Depth Not available.
6:13 AM 8:00 PM
Waxing Gibbous, 68% visible
METAR KALO 241154Z 00000KT 10SM CLR 03/01 A3012 RMK AO2 SLP201 T00280011 10067 20022 53003
Pressure 30.13 in
Visibility 10.0 miles
Clouds Clear
Windchill 46 °F
Dew Point 33 °F
Humidity 61%
Rainfall 0.00 in
Snow Depth Not available.
6:13 AM 8:00 PM
Waxing Gibbous, 68% visible
METAR KALO 241154Z 00000KT 10SM CLR 03/01 A3012 RMK AO2 SLP201 T00280011 10067 20022 53003

Get Your Daily Forecast Email!

Thanks for signing up!

Be on the lookout for a verification email in your inbox.

You'll start receiving severe weather alerts in your inbox..

×

10-Day Weather Forecast

Almanac

Astronomy

Apr. 24, 2018 Rise Set
Actual Time
Civil Twilight
Nautical Twilight
Astronomical Twilight
Moon
Length of Visible Light
Length of Day
Tomorrow will be .
, % of the Moon is Illuminated

Today's Extremes

State Highs State Lows

Community

WunderPhotos

Category 6

Welcome to Category 6. This is the collective home for Weather Underground's featured writeups by Dr. Jeff Masters (right), Bob Henson (left), Chris Burt, and other regular contributors.

Nearby

Air Quality

  Air Quality AQ Index Pollutant
Not available.

Snow Depth

Station Depth Elevation

Earthquake Activity

City Distance Mag. Time & Date
Minimum magnitude displayed is 2.5.

Coastal Water Temperatures

Place Temperature

Stations

Nearby Weather Stations

Station Location Temp. Windchill Dew Point Humidity Wind Precip. Elev Updated Type
                   

Watches & Warnings

Flood Warning
Issued: 4:10 AM CDT Apr. 24, 2018 – National Weather Service

... Flood Warning remains in effect until Thursday afternoon...

The Flood Warning continues for
the Cedar River at Cedar Falls, or from the West Fork Cedar
River... to the Cedar Falls-Waterloo city limits.
* Until Thursday afternoon.
* At 3:45 am Tuesday the stage was 87.5 feet, or 0.5 feet below
flood stage.
* Flood stage is 88.0 feet.
* No flooding is occurring and minor flooding is forecast.
* Forecast... rise to flood stage this morning. Continue rising to
89.5 feet, or 1.5 feet above flood stage, Wednesday afternoon.
Then begin falling and go below flood stage Thursday afternoon.
* Impact... at 89.0 feet, water is at the edge of 1712 Cottage row
Road. The northeast corner of Tourist Park floods.


Lat... Lon 4256 9238 4251 9245 4258 9255 4262 9255
      4262 9241 4256 9238